createdAt,value
2017-08-22T00:00:00.460Z,72.86
2017-08-22T00:01:14.615Z,73.34
2017-08-22T00:02:16.495Z,73.34
2017-08-22T00:03:18.375Z,73.44
2017-08-22T00:04:20.259Z,73.63
2017-08-22T00:05:22.079Z,73.44
2017-08-22T00:06:23.932Z,73.24
2017-08-22T00:07:25.803Z,73.54
2017-08-22T00:08:27.682Z,73.24
2017-08-22T00:09:29.565Z,73.63
2017-08-22T00:10:43.770Z,73.54
2017-08-22T00:11:45.653Z,73.82
2017-08-22T00:12:47.536Z,74.01
2017-08-22T00:13:49.422Z,74.58
2017-08-22T00:14:51.242Z,74.74
2017-08-22T00:15:53.064Z,74.77
2017-08-22T00:16:54.947Z,74.45
2017-08-22T00:17:56.827Z,74.77
2017-08-22T00:18:58.709Z,74.87
2017-08-22T00:20:12.864Z,74.11
2017-08-22T00:21:14.756Z,74.01
2017-08-22T00:22:16.636Z,74.11
2017-08-22T00:23:18.516Z,73.82
2017-08-22T00:24:20.352Z,73.72
2017-08-22T00:25:22.168Z,73.82
2017-08-22T00:26:24.049Z,73.91
2017-08-22T00:27:25.927Z,73.82
2017-08-22T00:28:27.815Z,74.68
2017-08-22T00:29:42.031Z,74.77
2017-08-22T00:30:43.909Z,74.49
2017-08-22T00:31:45.799Z,74.26
2017-08-22T00:32:47.678Z,74.58
2017-08-22T00:33:49.502Z,74.74
2017-08-22T00:34:51.325Z,75.12
2017-08-22T00:35:53.206Z,75.02
2017-08-22T00:36:55.085Z,74.93
2017-08-22T00:37:56.967Z,75.02
2017-08-22T00:39:11.125Z,74.65
2017-08-22T00:40:13.013Z,75.31
2017-08-22T00:41:14.895Z,75.31
2017-08-22T00:42:16.775Z,75.12
2017-08-22T00:43:18.610Z,75.31
2017-08-22T00:44:20.428Z,75.22
2017-08-22T00:45:22.317Z,75.22
2017-08-22T00:46:24.195Z,75.79
2017-08-22T00:47:26.079Z,76.18
2017-08-22T00:48:40.235Z,75.70
2017-08-22T00:49:42.114Z,76.46
2017-08-22T00:50:43.994Z,76.08
2017-08-22T00:51:45.874Z,75.70
2017-08-22T00:52:47.697Z,75.70
2017-08-22T00:53:49.516Z,75.60
2017-08-22T00:54:51.394Z,75.60
2017-08-22T00:55:53.277Z,76.08
2017-08-22T00:56:55.157Z,75.98
2017-08-22T00:58:09.313Z,75.79
2017-08-22T00:59:11.203Z,76.08
2017-08-22T01:00:13.083Z,76.27
2017-08-22T01:01:14.969Z,75.98
2017-08-22T01:02:16.791Z,76.46
2017-08-22T01:03:18.610Z,75.98
2017-08-22T01:04:20.498Z,76.75
2017-08-22T01:05:22.376Z,76.56
2017-08-22T01:06:24.262Z,76.56
2017-08-22T01:07:38.418Z,76.75
2017-08-22T01:08:40.295Z,76.75
2017-08-22T01:09:42.175Z,76.56
2017-08-22T01:10:44.066Z,76.27
2017-08-22T01:11:45.904Z,76.75
2017-08-22T01:12:47.727Z,76.56
2017-08-22T01:13:49.616Z,76.37
2017-08-22T01:14:51.506Z,76.52
2017-08-22T01:15:53.347Z,76.46
2017-08-22T01:17:07.503Z,76.37
2017-08-22T01:18:09.382Z,76.71
2017-08-22T01:19:11.261Z,77.00
2017-08-22T01:20:13.152Z,76.52
2017-08-22T01:21:14.975Z,76.62
2017-08-22T01:22:16.806Z,76.52
2017-08-22T01:23:18.687Z,77.19
2017-08-22T01:24:20.567Z,77.00
2017-08-22T01:25:22.452Z,77.28
2017-08-22T01:26:36.665Z,77.38
2017-08-22T01:27:38.544Z,77.19
2017-08-22T01:28:40.425Z,77.57
2017-08-22T01:29:42.312Z,77.48
2017-08-22T01:30:44.145Z,77.48
2017-08-22T01:31:45.968Z,77.19
2017-08-22T01:32:47.857Z,77.67
2017-08-22T01:33:49.738Z,77.95
2017-08-22T01:34:51.617Z,77.76
2017-08-22T01:36:05.817Z,78.05
2017-08-22T01:37:07.696Z,78.05
2017-08-22T01:38:09.577Z,77.92
2017-08-22T01:39:11.454Z,78.30
2017-08-22T01:40:13.273Z,78.30
2017-08-22T01:41:15.093Z,78.39
2017-08-22T01:42:16.968Z,78.68
2017-08-22T01:43:18.856Z,79.25
2017-08-22T01:44:20.735Z,79.25
2017-08-22T01:45:34.884Z,79.16
2017-08-22T01:46:36.773Z,79.06
2017-08-22T01:47:38.662Z,79.35
2017-08-22T01:48:40.539Z,79.25
2017-08-22T01:49:42.361Z,79.35
2017-08-22T01:50:44.187Z,79.35
2017-08-22T01:51:46.079Z,79.06
2017-08-22T01:52:47.968Z,78.87
2017-08-22T01:53:49.847Z,78.87
2017-08-22T01:55:03.996Z,78.63
2017-08-22T01:56:05.887Z,78.43
2017-08-22T01:57:07.775Z,78.30
2017-08-22T01:58:09.657Z,78.43
2017-08-22T01:59:11.476Z,78.39
2017-08-22T02:00:13.303Z,78.39
2017-08-22T02:01:15.190Z,78.49
2017-08-22T02:02:17.080Z,78.11
2017-08-22T02:03:18.960Z,78.20
2017-08-22T02:04:33.125Z,78.14
2017-08-22T02:05:34.999Z,78.43
2017-08-22T02:06:36.886Z,78.58
2017-08-22T02:07:38.775Z,78.63
2017-08-22T02:08:40.596Z,78.39
2017-08-22T02:09:42.410Z,78.34
2017-08-22T02:10:44.293Z,78.11
2017-08-22T02:11:46.183Z,78.30
2017-08-22T02:12:48.062Z,78.30
2017-08-22T02:14:02.213Z,78.39
2017-08-22T02:15:04.092Z,78.78
2017-08-22T02:16:05.975Z,78.97
2017-08-22T02:17:07.866Z,79.06
2017-08-22T02:18:09.685Z,78.78
2017-08-22T02:19:11.512Z,78.97
2017-08-22T02:20:13.391Z,79.06
2017-08-22T02:21:15.271Z,79.06
2017-08-22T02:22:17.150Z,79.06
2017-08-22T02:23:31.301Z,78.97
2017-08-22T02:24:33.181Z,79.25
2017-08-22T02:25:35.056Z,79.16
2017-08-22T02:26:37.211Z,79.25
2017-08-22T02:27:39.007Z,79.16
2017-08-22T02:28:40.835Z,79.83
2017-08-22T02:29:42.711Z,79.88
2017-08-22T02:30:44.590Z,80.46
2017-08-22T02:31:46.469Z,80.07
2017-08-22T02:33:00.620Z,80.17
2017-08-22T02:34:02.500Z,80.21
2017-08-22T02:35:04.383Z,80.27
2017-08-22T02:36:06.258Z,79.83
2017-08-22T02:37:08.076Z,79.83
2017-08-22T02:38:09.892Z,79.88
2017-08-22T02:39:11.771Z,79.88
2017-08-22T02:40:13.660Z,79.93
2017-08-22T02:41:15.541Z,79.54
2017-08-22T02:42:29.689Z,80.11
2017-08-22T02:43:31.569Z,80.02
2017-08-22T02:44:33.449Z,80.07
2017-08-22T02:45:35.329Z,79.60
2017-08-22T02:46:37.149Z,79.50
2017-08-22T02:47:38.965Z,80.11
2017-08-22T02:48:40.842Z,80.07
2017-08-22T02:49:42.734Z,79.79
2017-08-22T02:50:44.611Z,80.74
2017-08-22T02:51:58.819Z,80.65
2017-08-22T02:53:00.698Z,80.55
2017-08-22T02:54:02.577Z,80.65
2017-08-22T02:55:04.454Z,80.84
2017-08-22T02:56:06.275Z,80.84
2017-08-22T02:57:08.090Z,80.65
2017-08-22T02:58:09.967Z,80.74
2017-08-22T02:59:11.855Z,80.36
2017-08-22T03:00:13.726Z,80.84
2017-08-22T03:01:27.925Z,80.36
2017-08-22T03:02:29.803Z,80.65
2017-08-22T03:03:31.680Z,80.36
2017-08-22T03:04:33.557Z,80.36
2017-08-22T03:05:35.376Z,80.93
2017-08-22T03:06:37.194Z,80.84
2017-08-22T03:07:39.032Z,80.74
2017-08-22T03:08:40.886Z,80.93
2017-08-22T03:09:42.716Z,81.13
2017-08-22T03:10:56.864Z,81.32
2017-08-22T03:11:58.743Z,81.03
2017-08-22T03:13:00.632Z,81.32
2017-08-22T03:14:02.525Z,81.51
2017-08-22T03:15:04.342Z,81.99
2017-08-22T03:16:06.170Z,81.32
2017-08-22T03:17:08.049Z,81.51
2017-08-22T03:18:09.929Z,81.70
2017-08-22T03:19:11.809Z,81.32
2017-08-22T03:20:26.007Z,81.32
2017-08-22T03:21:27.885Z,81.60
2017-08-22T03:22:29.774Z,81.16
2017-08-22T03:23:31.652Z,81.03
2017-08-22T03:24:33.471Z,80.98
2017-08-22T03:25:35.296Z,80.98
2017-08-22T03:26:37.185Z,81.32
2017-08-22T03:27:39.064Z,81.03
2017-08-22T03:28:40.946Z,80.84
2017-08-22T03:29:55.097Z,81.26
2017-08-22T03:30:56.980Z,81.26
2017-08-22T03:31:58.860Z,81.36
2017-08-22T03:33:00.741Z,80.84
2017-08-22T03:34:02.560Z,81.16
2017-08-22T03:35:04.376Z,81.16
2017-08-22T03:36:06.260Z,81.03
2017-08-22T03:37:08.139Z,81.51
2017-08-22T03:38:10.017Z,81.41
2017-08-22T03:39:24.175Z,81.89
2017-08-22T03:40:26.067Z,81.70
2017-08-22T03:41:27.946Z,81.99
2017-08-22T03:42:29.829Z,82.18
2017-08-22T03:43:31.650Z,82.08
2017-08-22T03:44:33.476Z,82.08
2017-08-22T03:45:35.353Z,81.70
2017-08-22T03:46:37.233Z,81.99
2017-08-22T03:47:39.115Z,81.79
2017-08-22T03:48:53.280Z,81.32
2017-08-22T03:49:55.161Z,81.51
2017-08-22T03:50:57.049Z,81.51
2017-08-22T03:51:58.944Z,81.51
2017-08-22T03:53:00.765Z,81.70
2017-08-22T03:54:02.595Z,82.08
2017-08-22T03:55:04.473Z,81.99
2017-08-22T03:56:06.365Z,81.51
2017-08-22T03:57:08.247Z,81.55
2017-08-22T03:58:22.398Z,81.74
2017-08-22T03:59:24.282Z,82.03
2017-08-22T04:00:26.195Z,81.41
2017-08-22T04:01:28.068Z,81.74
2017-08-22T04:02:29.883Z,81.55
2017-08-22T04:03:31.710Z,81.36
2017-08-22T04:04:33.590Z,81.74
2017-08-22T04:05:35.475Z,81.16
2017-08-22T04:06:37.356Z,81.26
2017-08-22T04:07:51.520Z,80.98
2017-08-22T04:08:53.400Z,81.26
2017-08-22T04:09:55.287Z,80.88
2017-08-22T04:10:57.167Z,81.26
2017-08-22T04:11:58.990Z,80.98
2017-08-22T04:13:00.817Z,81.16
2017-08-22T04:14:02.696Z,81.51
2017-08-22T04:15:04.577Z,81.36
2017-08-22T04:16:06.460Z,81.07
2017-08-22T04:17:20.623Z,80.98
2017-08-22T04:18:22.506Z,81.26
2017-08-22T04:19:24.388Z,81.16
2017-08-22T04:20:26.290Z,80.88
2017-08-22T04:21:28.109Z,80.88
2017-08-22T04:22:29.927Z,81.16
2017-08-22T04:23:31.779Z,81.07
2017-08-22T04:24:33.620Z,80.79
2017-08-22T04:25:35.446Z,81.26
2017-08-22T04:26:49.596Z,81.07
2017-08-22T04:27:51.478Z,81.07
2017-08-22T04:28:53.373Z,80.98
2017-08-22T04:29:55.271Z,80.79
2017-08-22T04:30:57.109Z,81.07
2017-08-22T04:31:58.944Z,81.07
2017-08-22T04:33:00.824Z,80.69
2017-08-22T04:34:02.709Z,80.98
2017-08-22T04:35:04.589Z,80.98
2017-08-22T04:36:18.745Z,80.79
2017-08-22T04:37:20.628Z,80.88
2017-08-22T04:38:22.510Z,81.07
2017-08-22T04:39:24.404Z,81.07
2017-08-22T04:40:26.226Z,81.26
2017-08-22T04:41:28.058Z,81.07
2017-08-22T04:42:29.940Z,81.07
2017-08-22T04:43:31.832Z,80.88
2017-08-22T04:44:33.716Z,81.07
2017-08-22T04:45:47.880Z,81.36
2017-08-22T04:46:49.765Z,81.07
2017-08-22T04:47:51.650Z,80.40
2017-08-22T04:48:53.534Z,80.63
2017-08-22T04:49:55.357Z,80.82
2017-08-22T04:50:57.185Z,80.92
2017-08-22T04:51:59.076Z,79.96
2017-08-22T04:53:00.961Z,79.96
2017-08-22T04:54:02.843Z,80.44
2017-08-22T04:55:17.055Z,79.87
2017-08-22T04:56:18.937Z,79.58
2017-08-22T04:57:20.831Z,79.87
2017-08-22T04:58:22.715Z,80.10
2017-08-22T04:59:24.550Z,79.52
2017-08-22T05:00:26.372Z,79.05
2017-08-22T05:01:28.256Z,79.14
2017-08-22T05:02:30.152Z,79.24
2017-08-22T05:03:32.039Z,79.14
2017-08-22T05:04:46.198Z,79.05
2017-08-22T05:05:48.078Z,78.76
2017-08-22T05:06:49.964Z,78.76
2017-08-22T05:07:51.848Z,78.57
2017-08-22T05:08:53.685Z,78.47
2017-08-22T05:09:55.517Z,78.28
2017-08-22T05:10:57.399Z,78.42
2017-08-22T05:11:59.286Z,78.19
2017-08-22T05:13:01.172Z,78.38
2017-08-22T05:14:15.326Z,78.19
2017-08-22T05:15:17.210Z,78.32
2017-08-22T05:16:19.103Z,78.51
2017-08-22T05:17:20.989Z,78.47
2017-08-22T05:18:22.826Z,78.61
2017-08-22T05:19:24.648Z,78.38
2017-08-22T05:20:26.534Z,78.42
2017-08-22T05:21:28.429Z,78.66
2017-08-22T05:22:30.316Z,78.70
2017-08-22T05:23:44.473Z,78.70
2017-08-22T05:24:46.358Z,78.80
2017-08-22T05:25:48.242Z,78.32
2017-08-22T05:26:50.141Z,78.61
2017-08-22T05:27:51.966Z,77.94
2017-08-22T05:28:53.800Z,77.84
2017-08-22T05:29:55.684Z,77.94
2017-08-22T05:30:57.568Z,77.46
2017-08-22T05:31:59.454Z,77.75
2017-08-22T05:33:13.622Z,76.64
2017-08-22T05:34:15.505Z,76.89
2017-08-22T05:35:17.399Z,76.92
2017-08-22T05:36:19.285Z,76.98
2017-08-22T05:37:21.122Z,76.60
2017-08-22T05:38:22.946Z,76.98
2017-08-22T05:39:24.831Z,77.46
2017-08-22T05:40:26.676Z,77.75
2017-08-22T05:41:28.499Z,77.55
2017-08-22T05:42:42.678Z,76.89
2017-08-22T05:43:44.567Z,77.46
2017-08-22T05:44:46.452Z,77.75
2017-08-22T05:45:48.338Z,77.75
2017-08-22T05:46:50.162Z,77.65
2017-08-22T05:47:51.993Z,77.65
2017-08-22T05:48:53.890Z,77.50
2017-08-22T05:49:55.772Z,77.59
2017-08-22T05:50:57.660Z,76.82
2017-08-22T05:52:11.814Z,76.82
2017-08-22T05:53:13.700Z,76.44
2017-08-22T05:54:15.594Z,76.35
2017-08-22T05:55:17.480Z,75.68
2017-08-22T05:56:19.316Z,76.10
2017-08-22T05:57:21.138Z,75.62
2017-08-22T05:58:23.022Z,75.23
2017-08-22T05:59:24.908Z,75.14
2017-08-22T06:00:26.794Z,74.85
2017-08-22T06:01:40.962Z,75.14
2017-08-22T06:02:42.847Z,74.31
2017-08-22T06:03:44.730Z,74.08
2017-08-22T06:04:46.616Z,73.51
2017-08-22T06:05:48.440Z,73.70
2017-08-22T06:06:50.275Z,73.32
2017-08-22T06:07:52.172Z,73.22
2017-08-22T06:08:54.060Z,73.61
2017-08-22T06:09:55.953Z,72.97
2017-08-22T06:11:10.109Z,72.78
2017-08-22T06:12:11.997Z,72.49
2017-08-22T06:13:13.892Z,72.68
2017-08-22T06:14:15.790Z,72.43
2017-08-22T06:15:17.618Z,72.53
2017-08-22T06:16:19.442Z,72.33
2017-08-22T06:17:21.329Z,71.86
2017-08-22T06:18:23.215Z,72.05
2017-08-22T06:19:25.117Z,71.57
2017-08-22T06:20:39.271Z,71.63
2017-08-22T06:21:41.157Z,71.82
2017-08-22T06:22:43.051Z,72.11
2017-08-22T06:23:44.939Z,72.11
2017-08-22T06:24:46.764Z,72.07
2017-08-22T06:25:48.584Z,72.39
2017-08-22T06:26:50.483Z,72.78
2017-08-22T06:27:52.366Z,72.49
2017-08-22T06:28:54.251Z,72.39
2017-08-22T06:30:08.421Z,72.49
2017-08-22T06:31:10.308Z,72.49
2017-08-22T06:32:12.204Z,72.11
2017-08-22T06:33:14.077Z,72.59
2017-08-22T06:34:15.902Z,72.59
2017-08-22T06:35:17.736Z,72.49
2017-08-22T06:36:19.620Z,73.26
2017-08-22T06:37:21.508Z,72.39
2017-08-22T06:38:23.404Z,72.78
2017-08-22T06:39:37.564Z,73.13
2017-08-22T06:40:39.450Z,73.70
2017-08-22T06:41:41.346Z,74.18
2017-08-22T06:42:43.233Z,73.90
2017-08-22T06:43:45.059Z,73.90
2017-08-22T06:44:46.882Z,74.08
2017-08-22T06:45:48.764Z,74.37
2017-08-22T06:46:50.664Z,74.76
2017-08-22T06:47:52.548Z,74.37
2017-08-22T06:49:06.708Z,74.76
2017-08-22T06:50:08.593Z,75.04
2017-08-22T06:51:10.477Z,74.76
2017-08-22T06:52:12.365Z,74.85
2017-08-22T06:53:14.191Z,74.95
2017-08-22T06:54:16.011Z,75.23
2017-08-22T06:55:17.894Z,75.14
2017-08-22T06:56:19.791Z,75.04
2017-08-22T06:57:21.679Z,74.85
2017-08-22T06:58:35.838Z,74.85
2017-08-22T06:59:37.727Z,74.76
2017-08-22T07:00:39.621Z,74.85
2017-08-22T07:01:41.521Z,74.95
2017-08-22T07:02:43.347Z,73.93
2017-08-22T07:03:45.170Z,73.45
2017-08-22T07:04:47.060Z,72.88
2017-08-22T07:05:48.959Z,72.63
2017-08-22T07:06:50.855Z,72.05
2017-08-22T07:08:05.013Z,71.76
2017-08-22T07:09:06.899Z,72.20
2017-08-22T07:10:08.792Z,72.39
2017-08-22T07:11:10.683Z,72.39
2017-08-22T07:12:12.510Z,72.30
2017-08-22T07:13:14.336Z,72.53
2017-08-22T07:14:16.217Z,72.53
2017-08-22T07:15:18.113Z,72.33
2017-08-22T07:16:20.000Z,72.05
2017-08-22T07:17:34.159Z,72.49
2017-08-22T07:18:36.044Z,72.20
2017-08-22T07:19:37.938Z,72.59
2017-08-22T07:20:39.825Z,72.97
2017-08-22T07:21:41.653Z,72.68
2017-08-22T07:22:43.486Z,72.78
2017-08-22T07:23:45.373Z,72.68
2017-08-22T07:24:47.258Z,72.39
2017-08-22T07:25:49.147Z,72.97
2017-08-22T07:27:03.306Z,72.97
2017-08-22T07:28:05.192Z,73.07
2017-08-22T07:29:07.077Z,73.03
2017-08-22T07:30:08.964Z,73.03
2017-08-22T07:31:10.792Z,73.61
2017-08-22T07:32:12.614Z,73.65
2017-08-22T07:33:14.512Z,73.22
2017-08-22T07:34:16.410Z,73.74
2017-08-22T07:35:18.261Z,72.68
2017-08-22T07:36:32.458Z,72.88
2017-08-22T07:37:34.346Z,72.33
2017-08-22T07:38:36.244Z,72.14
2017-08-22T07:39:38.142Z,71.95
2017-08-22T07:40:39.973Z,71.37
2017-08-22T07:41:41.796Z,71.37
2017-08-22T07:42:43.684Z,70.64
2017-08-22T07:43:45.584Z,69.87
2017-08-22T07:44:47.472Z,69.59
2017-08-22T07:46:01.634Z,69.53
2017-08-22T07:47:03.523Z,68.85
2017-08-22T07:48:05.420Z,68.85
2017-08-22T07:49:07.319Z,68.66
2017-08-22T07:50:09.147Z,68.47
2017-08-22T07:51:10.973Z,68.66
2017-08-22T07:52:12.860Z,69.11
2017-08-22T07:53:14.747Z,69.40
2017-08-22T07:54:16.637Z,69.78
2017-08-22T07:55:30.845Z,69.97
2017-08-22T07:56:32.735Z,69.87
2017-08-22T07:57:34.619Z,70.17
2017-08-22T07:58:36.520Z,70.17
2017-08-22T07:59:38.350Z,69.78
2017-08-22T08:00:40.174Z,69.97
2017-08-22T08:01:42.062Z,69.97
2017-08-22T08:02:43.951Z,70.36
2017-08-22T08:03:45.842Z,70.49
2017-08-22T08:05:00.014Z,70.39
2017-08-22T08:06:01.901Z,70.10
2017-08-22T08:07:03.799Z,70.36
2017-08-22T08:08:05.688Z,71.22
2017-08-22T08:09:07.525Z,71.03
2017-08-22T08:10:09.350Z,70.93
2017-08-22T08:11:11.243Z,71.37
2017-08-22T08:12:13.130Z,71.86
2017-08-22T08:13:15.044Z,71.76
2017-08-22T08:14:29.180Z,72.05
2017-08-22T08:15:31.067Z,72.24
2017-08-22T08:16:32.962Z,72.33
2017-08-22T08:17:34.860Z,72.72
2017-08-22T08:18:36.688Z,72.63
2017-08-22T08:19:38.513Z,72.72
2017-08-22T08:20:40.398Z,72.81
2017-08-22T08:21:42.301Z,72.24
2017-08-22T08:22:44.188Z,72.53
2017-08-22T08:23:58.357Z,72.53
2017-08-22T08:25:00.245Z,72.53
2017-08-22T08:26:02.140Z,72.05
2017-08-22T08:27:04.041Z,71.80
2017-08-22T08:28:05.868Z,71.51
2017-08-22T08:29:07.705Z,70.58
2017-08-22T08:30:09.594Z,70.14
2017-08-22T08:31:11.482Z,68.70
2017-08-22T08:32:13.369Z,67.93
2017-08-22T08:33:27.543Z,67.45
2017-08-22T08:34:29.431Z,67.64
2017-08-22T08:35:31.328Z,67.35
2017-08-22T08:36:33.229Z,68.02
2017-08-22T08:37:35.056Z,67.80
2017-08-22T08:38:36.880Z,67.99
2017-08-22T08:39:38.773Z,68.37
2017-08-22T08:40:40.661Z,68.66
2017-08-22T08:41:42.554Z,68.37
2017-08-22T08:42:56.713Z,68.31
2017-08-22T08:43:58.600Z,68.60
2017-08-22T08:45:00.488Z,68.02
2017-08-22T08:46:02.376Z,67.35
2017-08-22T08:47:04.209Z,67.45
2017-08-22T08:48:06.030Z,67.25
2017-08-22T08:49:07.927Z,67.38
2017-08-22T08:50:09.818Z,67.19
2017-08-22T08:51:11.707Z,66.10
2017-08-22T08:52:25.872Z,66.68
2017-08-22T08:53:27.761Z,66.87
2017-08-22T08:54:29.648Z,67.25
2017-08-22T08:55:31.548Z,67.16
2017-08-22T08:56:33.379Z,67.93
2017-08-22T08:57:35.205Z,67.80
2017-08-22T08:58:37.091Z,68.18
2017-08-22T08:59:38.994Z,68.02
2017-08-22T09:00:40.895Z,67.99
2017-08-22T09:01:55.051Z,68.31
2017-08-22T09:02:56.940Z,67.25
2017-08-22T09:03:58.829Z,67.45
2017-08-22T09:05:00.719Z,67.10
2017-08-22T09:06:02.548Z,66.52
2017-08-22T09:07:04.376Z,66.14
2017-08-22T09:08:06.263Z,66.52
2017-08-22T09:09:08.155Z,66.42
2017-08-22T09:10:10.049Z,66.23
2017-08-22T09:11:24.209Z,66.68
2017-08-22T09:12:26.101Z,66.91
2017-08-22T09:13:27.989Z,66.42
2017-08-22T09:14:29.880Z,66.14
2017-08-22T09:15:31.713Z,65.75
2017-08-22T09:16:33.538Z,66.33
2017-08-22T09:17:35.426Z,65.84
2017-08-22T09:18:37.316Z,66.04
2017-08-22T09:19:39.205Z,65.78
2017-08-22T09:20:53.376Z,64.56
2017-08-22T09:21:55.262Z,64.28
2017-08-22T09:22:57.157Z,64.37
2017-08-22T09:23:59.057Z,64.86
2017-08-22T09:25:00.888Z,64.28
2017-08-22T09:26:02.713Z,63.82
2017-08-22T09:27:04.601Z,63.73
2017-08-22T09:28:06.492Z,63.54
2017-08-22T09:29:08.385Z,62.96
2017-08-22T09:30:22.552Z,62.22
2017-08-22T09:31:24.444Z,62.12
2017-08-22T09:32:26.331Z,61.68
2017-08-22T09:33:28.223Z,61.10
2017-08-22T09:34:30.068Z,60.80
2017-08-22T09:35:31.893Z,60.71
2017-08-22T09:36:33.784Z,61.10
2017-08-22T09:37:35.676Z,61.48
2017-08-22T09:38:37.567Z,61.32
2017-08-22T09:39:51.729Z,60.13
2017-08-22T09:40:53.618Z,60.32
2017-08-22T09:41:55.505Z,60.77
2017-08-22T09:42:57.393Z,62.00
2017-08-22T09:43:59.224Z,62.29
2017-08-22T09:45:01.060Z,62.87
2017-08-22T09:46:02.949Z,63.73
2017-08-22T09:47:04.839Z,63.73
2017-08-22T09:48:06.730Z,63.60
2017-08-22T09:49:20.942Z,63.54
2017-08-22T09:50:22.829Z,63.99
2017-08-22T09:51:24.728Z,63.64
2017-08-22T09:52:26.630Z,63.06
2017-08-22T09:53:28.458Z,62.41
2017-08-22T09:54:30.297Z,62.32
2017-08-22T09:55:32.183Z,62.06
2017-08-22T09:56:34.075Z,61.29
2017-08-22T09:57:35.975Z,61.10
2017-08-22T09:58:50.137Z,61.22
2017-08-22T09:59:52.025Z,60.93
2017-08-22T10:00:53.912Z,60.23
2017-08-22T10:01:55.800Z,60.90
2017-08-22T10:02:57.646Z,61.48
2017-08-22T10:03:59.473Z,61.48
2017-08-22T10:05:01.361Z,60.55
2017-08-22T10:06:03.262Z,59.87
2017-08-22T10:07:05.161Z,59.32
2017-08-22T10:08:19.321Z,58.36
2017-08-22T10:09:21.209Z,57.14
2017-08-22T10:10:23.108Z,56.56
2017-08-22T10:11:25.006Z,55.81
2017-08-22T10:12:26.839Z,56.00
2017-08-22T10:13:28.665Z,55.71
2017-08-22T10:14:30.553Z,55.55
2017-08-22T10:15:32.453Z,55.16
2017-08-22T10:16:34.344Z,54.97
2017-08-22T10:17:48.507Z,54.41
2017-08-22T10:18:50.416Z,54.32
2017-08-22T10:19:52.304Z,53.83
2017-08-22T10:20:54.195Z,53.35
2017-08-22T10:21:56.026Z,52.77
2017-08-22T10:22:57.855Z,52.94
2017-08-22T10:23:59.742Z,52.84
2017-08-22T10:25:01.641Z,53.27
2017-08-22T10:26:03.531Z,53.95
2017-08-22T10:27:17.694Z,55.05
2017-08-22T10:28:19.579Z,55.54
2017-08-22T10:29:21.476Z,56.57
2017-08-22T10:30:23.361Z,57.40
2017-08-22T10:31:25.187Z,57.98
2017-08-22T10:32:27.010Z,58.75
2017-08-22T10:33:28.924Z,59.40
2017-08-22T10:34:30.786Z,59.78
2017-08-22T10:35:32.675Z,59.37
2017-08-22T10:36:46.835Z,60.24
2017-08-22T10:37:48.727Z,60.81
2017-08-22T10:38:50.610Z,61.36
2017-08-22T10:39:52.509Z,61.07
2017-08-22T10:40:54.350Z,60.97
2017-08-22T10:41:56.176Z,61.43
2017-08-22T10:42:58.024Z,61.81
2017-08-22T10:43:59.852Z,62.16
2017-08-22T10:45:01.690Z,62.55
2017-08-22T10:46:15.897Z,62.84
2017-08-22T10:47:17.793Z,62.87
2017-08-22T10:48:19.674Z,62.58
2017-08-22T10:49:21.577Z,62.77
2017-08-22T10:50:23.408Z,62.38
2017-08-22T10:51:25.263Z,62.13
2017-08-22T10:52:27.137Z,62.03
2017-08-22T10:53:29.027Z,61.74
2017-08-22T10:54:30.916Z,61.39
2017-08-22T10:55:45.075Z,61.68
2017-08-22T10:56:46.966Z,61.19
2017-08-22T10:57:48.853Z,61.29
2017-08-22T10:58:50.745Z,60.72
2017-08-22T10:59:52.575Z,60.42
2017-08-22T11:00:54.412Z,60.42
2017-08-22T11:01:56.302Z,60.24
2017-08-22T11:02:58.192Z,60.46
2017-08-22T11:04:00.092Z,60.24
2017-08-22T11:05:14.256Z,60.17
2017-08-22T11:06:16.149Z,59.85
2017-08-22T11:07:18.032Z,60.04
2017-08-22T11:08:19.923Z,60.46
2017-08-22T11:09:21.752Z,60.07
2017-08-22T11:10:23.579Z,59.88
2017-08-22T11:11:25.488Z,59.66
2017-08-22T11:12:27.368Z,59.88
2017-08-22T11:13:29.259Z,60.17
2017-08-22T11:14:43.421Z,59.97
2017-08-22T11:15:45.311Z,59.78
2017-08-22T11:16:47.199Z,59.43
2017-08-22T11:17:49.089Z,58.95
2017-08-22T11:18:50.921Z,58.85
2017-08-22T11:19:52.745Z,58.27
2017-08-22T11:20:54.634Z,56.82
2017-08-22T11:21:56.535Z,56.73
2017-08-22T11:22:58.426Z,56.44
2017-08-22T11:24:12.615Z,56.41
2017-08-22T11:25:14.480Z,56.80
2017-08-22T11:26:16.368Z,56.99
2017-08-22T11:27:18.257Z,58.05
2017-08-22T11:28:20.086Z,58.60
2017-08-22T11:29:21.910Z,58.98
2017-08-22T11:30:23.796Z,59.94
2017-08-22T11:31:25.698Z,60.21
2017-08-22T11:32:27.605Z,60.14
2017-08-22T11:33:41.744Z,60.52
2017-08-22T11:34:43.629Z,61.26
2017-08-22T11:35:45.523Z,60.97
2017-08-22T11:36:47.403Z,61.26
2017-08-22T11:37:49.240Z,61.55
2017-08-22T11:38:51.077Z,61.61
2017-08-22T11:39:52.970Z,62.29
2017-08-22T11:40:54.853Z,63.64
2017-08-22T11:41:56.739Z,64.56
2017-08-22T11:43:10.909Z,75.57
2017-08-22T11:44:12.799Z,81.30
2017-08-22T11:45:14.688Z,85.67
2017-08-22T11:46:16.577Z,87.26
2017-08-22T11:47:18.403Z,89.85
2017-08-22T11:48:20.245Z,90.85
2017-08-22T11:49:22.133Z,89.41
2017-08-22T11:50:24.024Z,89.22
2017-08-22T11:51:25.965Z,87.59
2017-08-22T11:52:40.105Z,87.68
2017-08-22T11:53:42.005Z,87.15
2017-08-22T11:54:43.891Z,85.18
2017-08-22T11:55:45.790Z,79.80
2017-08-22T11:56:47.613Z,78.45
2017-08-22T11:57:49.439Z,74.62
2017-08-22T11:58:51.328Z,72.89
2017-08-22T11:59:53.231Z,72.79
2017-08-22T12:00:55.122Z,73.69
2017-08-22T12:02:09.283Z,71.67
2017-08-22T12:03:11.173Z,69.27
2017-08-22T12:04:13.060Z,68.12
2017-08-22T12:05:14.950Z,68.51
2017-08-22T12:06:16.821Z,66.81
2017-08-22T12:07:18.650Z,66.23
2017-08-22T12:08:20.535Z,65.66
2017-08-22T12:09:22.406Z,65.50
2017-08-22T12:10:24.309Z,64.82
2017-08-22T12:11:38.542Z,62.93
2017-08-22T12:12:40.436Z,62.26
2017-08-22T12:13:42.318Z,61.77
2017-08-22T12:14:44.205Z,61.74
2017-08-22T12:15:46.034Z,62.06
2017-08-22T12:16:47.867Z,61.94
2017-08-22T12:17:49.760Z,61.97
2017-08-22T12:18:51.695Z,62.06
2017-08-22T12:19:53.668Z,61.29
2017-08-22T12:21:07.812Z,61.39
2017-08-22T12:22:09.700Z,61.29
2017-08-22T12:23:11.588Z,61.10
2017-08-22T12:24:13.477Z,60.91
2017-08-22T12:25:15.309Z,60.72
2017-08-22T12:26:17.913Z,60.65
2017-08-22T12:27:20.851Z,60.75
2017-08-22T12:28:23.199Z,60.75
2017-08-22T12:29:25.676Z,60.46
2017-08-22T12:30:40.474Z,59.88
2017-08-22T12:31:42.909Z,60.10
2017-08-22T12:32:45.666Z,59.72
2017-08-22T12:33:47.880Z,59.23
2017-08-22T12:34:50.048Z,59.14
2017-08-22T12:35:52.417Z,58.49
2017-08-22T12:36:55.518Z,57.62
2017-08-22T12:37:57.729Z,55.60
2017-08-22T12:39:00.142Z,54.83
2017-08-22T12:40:14.596Z,55.22
2017-08-22T12:41:16.899Z,55.77
2017-08-22T12:42:19.887Z,56.15
2017-08-22T12:43:22.377Z,56.73
2017-08-22T12:44:24.722Z,56.82
2017-08-22T12:45:26.873Z,56.35
2017-08-22T12:46:29.513Z,57.02
2017-08-22T12:47:32.253Z,56.90
2017-08-22T12:48:34.802Z,56.41
2017-08-22T12:49:49.366Z,56.73
2017-08-22T12:50:51.616Z,56.63
2017-08-22T12:51:53.814Z,56.35
2017-08-22T12:52:56.767Z,56.27
2017-08-22T12:53:59.316Z,56.09
2017-08-22T12:55:01.477Z,56.15
2017-08-22T12:56:03.714Z,56.44
2017-08-22T12:57:06.365Z,55.35
2017-08-22T12:59:38.771Z,55.26
2017-08-22T13:00:41.005Z,54.78
2017-08-22T13:01:43.586Z,54.68
2017-08-22T13:02:46.157Z,53.91
2017-08-22T13:03:48.616Z,54.30
2017-08-22T13:04:50.770Z,54.39
2017-08-22T13:05:53.282Z,54.30
2017-08-22T13:06:56.030Z,53.91
2017-08-22T13:07:58.825Z,53.43
2017-08-22T13:09:13.911Z,54.10
2017-08-22T13:10:16.152Z,54.39
2017-08-22T13:11:18.967Z,54.78
2017-08-22T13:12:21.715Z,54.68
2017-08-22T13:13:24.594Z,54.97
2017-08-22T13:14:26.747Z,54.90
2017-08-22T13:15:29.379Z,54.97
2017-08-22T13:16:32.019Z,54.78
2017-08-22T13:17:34.449Z,54.20
2017-08-22T13:19:54.213Z,54.97
2017-08-22T13:20:56.566Z,55.07
2017-08-22T13:21:59.048Z,54.87
2017-08-22T13:23:01.866Z,54.80
2017-08-22T13:24:04.140Z,54.90
2017-08-22T13:25:06.698Z,54.71
2017-08-22T13:26:09.072Z,54.61
2017-08-22T13:27:11.482Z,55.07
2017-08-22T13:28:14.508Z,55.26
2017-08-22T13:29:29.339Z,54.39
2017-08-22T13:30:31.731Z,55.52
2017-08-22T13:31:33.952Z,55.43
2017-08-22T13:32:36.341Z,56.20
2017-08-22T13:33:38.949Z,55.90
2017-08-22T13:34:41.116Z,56.58
2017-08-22T13:35:43.460Z,56.77
2017-08-22T13:36:45.771Z,57.35